Weather at Smithville Aerodrome

Public forecast

Using degrees Celsius for public forecast. Weather courtesy of forecast.io.

Closest aviation weather report (METAR) to Smithville Aerodrome

Closest report is John C. Munro Hamilton International Airport, 14.0 nm (26.0 km) WNW.

2024/05/21 07:00 (retrieved 50 minutes ago)

CYHM 210700Z 16004KT 15SM BKN210 18/15 A2986 RMK CS7 SLP110 DENSITY ALT 1400FT

Closest aviation forecast (TAF) to Smithville Aerodrome

Closest forecast is John C. Munro Hamilton International Airport, 14.0 nm (26.0 km) WNW.

2024/05/21 06:42 (retrieved 1 hour ago)

TAF CYHM 210540Z 2106/2206 17007KT P6SM SCT070 BKN120 FM211200 21010KT P6SM BKN070 BECMG 2114/2116 22012G22KT FM211800 23015G25KT P6SM BKN060 PROB30 2118/2122 2 1/2SM TSRA BR BKN050CB FM212300 24010KT P6SM SCT060 BECMG 2202/2204 17008KT RMK NXT FCST BY 211200Z